Terminal Aerodrome Forecast
Issued by NWS Missoula, MT

Home | Current Version | Previous Version | Text Only | Print | Product List | Glossary On
Versions: 1 2 3 4 5 6 7 8 9 10 11 12 13
000
FTUS45 KMSO 042320
TAFBTM
TAF
KBTM 042320Z 0500/0524 16006KT P6SM SCT150
     FM052000 18010G17KT P6SM BKN200
     FM052300 18012G20KT P6SM VCTS FEW050CB BKN150=

USA.gov is the U.S. government's official web portal to all federal, state and local government web resources and services.